Time;durP1;ratioP1;P1;durP2;ratioP2;P2;SDS_P1;SDS_P2;PMS_P1;PMS_P2;Temp;Humidity;BMP_temperature;BMP_pressure;BME280_temperature;BME280_humidity;BME280_pressure;Samples;Min_cycle;Max_cycle;Signal;HPM_P1;HPM_P2
2022/10/21 00:02:21;;;;;;;38.15;22.92;;;11.60;99.90;;;;;;5059004;28;20107;-95
2022/10/21 00:04:47;;;;;;;36.83;22.60;;;12.10;99.90;;;;;;5056680;28;20108;-95
2022/10/21 00:07:13;;;;;;;40.67;22.00;;;12.60;99.90;;;;;;5075213;28;20032;-95
2022/10/21 00:09:38;;;;;;;35.35;21.88;;;11.80;99.90;;;;;;5057442;28;20104;-96
2022/10/21 00:12:04;;;;;;;32.55;21.73;;;11.40;99.90;;;;;;5041324;28;20077;-96
2022/10/21 00:14:30;;;;;;;40.00;24.88;;;11.40;99.90;;;;;;5040648;28;20119;-96
2022/10/21 00:16:58;;;;;;;35.80;21.15;;;11.40;99.90;;;;;;5073788;28;20088;-96
2022/10/21 00:19:23;;;;;;;37.45;23.10;;;12.00;99.90;;;;;;5057795;28;20040;-95
2022/10/21 00:21:49;;;;;;;34.65;23.52;;;11.70;99.90;;;;;;5040123;28;19965;-94
2022/10/21 00:24:16;;;;;;;35.85;21.83;;;11.00;99.90;;;;;;5057791;28;20044;-94
2022/10/21 00:26:42;;;;;;;33.25;21.95;;;11.40;99.90;;;;;;5040066;28;20039;-95
2022/10/21 00:29:07;;;;;;;40.40;23.00;;;12.60;99.90;;;;;;5058355;28;20405;-95
2022/10/21 00:31:33;;;;;;;41.05;22.45;;;11.40;99.90;;;;;;5057325;28;20145;-95
2022/10/21 00:33:59;;;;;;;35.33;23.20;;;12.60;99.90;;;;;;5041160;28;20051;-96
2022/10/21 00:36:25;;;;;;;37.90;21.95;;;11.30;99.90;;;;;;5041414;28;20035;-95
2022/10/21 00:38:51;;;;;;;38.95;23.88;;;12.60;99.90;;;;;;5056519;28;20046;-96
2022/10/21 00:41:18;;;;;;;36.03;22.95;;;11.40;99.90;;;;;;5057947;28;20031;-94
2022/10/21 00:44:02;;;;;;;42.67;23.02;;;12.20;99.90;;;;;;5056715;28;20414;-95
2022/10/21 00:46:37;;;;;;;42.42;21.85;;;11.30;99.90;;;;;;5074037;28;20040;-95
2022/10/21 00:49:07;;;;;;;35.05;23.17;;;11.30;99.90;;;;;;5071404;28;20061;-95
2022/10/21 00:51:33;;;;;;;32.13;22.27;;;11.30;99.90;;;;;;5052813;28;20070;-94
2022/10/21 00:54:00;;;;;;;33.38;22.55;;;11.20;99.90;;;;;;5038052;28;20562;-95
2022/10/21 00:56:29;;;;;;;37.78;21.52;;;12.10;99.90;;;;;;5052777;28;20048;-95
2022/10/21 00:58:57;;;;;;;36.78;22.45;;;12.30;99.90;;;;;;5054197;28;20047;-95
2022/10/21 01:01:24;;;;;;;35.25;22.23;;;12.10;99.90;;;;;;5052537;28;20044;-95
2022/10/21 01:03:51;;;;;;;36.20;22.05;;;12.20;99.90;;;;;;5053858;28;20040;-94
2022/10/21 01:06:20;;;;;;;37.33;22.85;;;11.20;99.90;;;;;;5036781;28;20083;-92
2022/10/21 01:08:46;;;;;;;36.53;23.23;;;11.20;99.90;;;;;;5052737;28;20028;-95
2022/10/21 01:11:16;;;;;;;33.03;21.88;;;11.20;99.90;;;;;;5037445;28;20044;-93
2022/10/21 01:14:17;;;;;;;37.67;22.65;;;11.10;99.90;;;;;;5052966;28;20082;-93
2022/10/21 01:16:46;;;;;;;37.20;21.17;;;11.10;99.90;;;;;;5054387;28;20044;-93
2022/10/21 01:19:14;;;;;;;38.42;22.27;;;11.20;99.90;;;;;;5057180;28;20047;-93
2022/10/21 01:21:45;;;;;;;36.38;21.05;;;11.20;99.90;;;;;;5067727;28;20055;-95
2022/10/21 01:24:47;;;;;;;33.92;20.88;;;11.50;99.90;;;;;;5069412;28;20039;-94
2022/10/21 01:27:37;;;;;;;36.88;21.67;;;12.40;99.90;;;;;;5067495;28;20062;-95
2022/10/21 01:30:45;;;;;;;37.13;21.58;;;11.20;99.90;;;;;;5068769;28;20044;-95
2022/10/21 01:33:49;;;;;;;36.97;22.08;;;11.30;99.90;;;;;;4961477;28;20047;-94
2022/10/21 01:36:32;;;;;;;36.83;21.98;;;11.20;99.90;;;;;;4959542;28;20066;-95
2022/10/21 01:39:04;;;;;;;37.95;21.38;;;11.20;99.90;;;;;;5043536;28;20101;-95
2022/10/21 01:41:38;;;;;;;33.10;20.42;;;11.20;99.90;;;;;;5057823;28;20087;-96
2022/10/21 01:44:23;;;;;;;46.38;23.85;;;11.20;99.90;;;;;;5056041;28;20046;-95
2022/10/21 01:47:02;;;;;;;45.83;22.33;;;11.10;99.90;;;;;;5056919;28;20047;-96
2022/10/21 01:49:33;;;;;;;35.88;21.67;;;11.10;99.90;;;;;;5061938;28;20448;-95
2022/10/21 01:52:01;;;;;;;38.78;21.50;;;11.10;99.90;;;;;;5075849;28;20051;-95
2022/10/21 01:54:51;;;;;;;34.22;21.77;;;11.10;99.90;;;;;;5044750;28;20044;-94
2022/10/21 01:57:20;;;;;;;36.38;21.38;;;11.30;99.90;;;;;;5075940;28;20075;-95
2022/10/21 01:59:47;;;;;;;36.10;21.90;;;11.40;99.90;;;;;;5077230;28;20038;-96
2022/10/21 02:02:15;;;;;;;34.33;22.02;;;12.10;99.90;;;;;;5043446;28;20096;-95
2022/10/21 02:04:43;;;;;;;33.53;21.52;;;11.10;99.90;;;;;;5076702;28;20036;-93
2022/10/21 02:07:09;;;;;;;35.97;21.92;;;11.70;99.90;;;;;;5077048;28;20048;-95
2022/10/21 02:09:35;;;;;;;33.95;19.77;;;11.10;99.90;;;;;;5059240;28;20040;-94
2022/10/21 02:12:04;;;;;;;48.00;22.23;;;11.10;99.90;;;;;;5043999;28;20072;-94
2022/10/21 02:14:33;;;;;;;33.80;20.27;;;11.10;99.90;;;;;;5075803;28;20051;-95
2022/10/21 02:16:59;;;;;;;31.13;20.83;;;11.70;99.90;;;;;;5076563;28;20043;-94
2022/10/21 02:19:26;;;;;;;39.42;21.33;;;11.30;99.90;;;;;;5076057;28;20047;-94
2022/10/21 02:21:54;;;;;;;32.55;21.73;;;11.10;99.90;;;;;;5059454;28;20506;-94
2022/10/21 02:24:22;;;;;;;41.90;23.70;;;10.70;99.90;;;;;;5076811;28;20040;-95
2022/10/21 02:26:48;;;;;;;36.30;21.35;;;11.20;99.90;;;;;;5075940;28;20043;-94
2022/10/21 02:29:19;;;;;;;35.75;23.15;;;11.90;99.90;;;;;;5060143;28;20054;-95
2022/10/21 02:32:12;;;;;;;35.72;22.20;;;11.70;99.90;;;;;;5076393;28;20040;-95
2022/10/21 02:34:47;;;;;;;34.03;20.13;;;11.30;99.90;;;;;;5076182;28;20035;-96
2022/10/21 02:37:34;;;;;;;34.38;21.35;;;11.30;99.90;;;;;;5077090;28;20093;-95
2022/10/21 02:40:16;;;;;;;35.72;21.10;;;11.30;99.90;;;;;;5077142;28;20104;-95
2022/10/21 02:42:59;;;;;;;42.55;23.17;;;11.30;99.90;;;;;;5078260;28;20051;-95
2022/10/21 02:45:27;;;;;;;40.45;22.48;;;11.40;99.90;;;;;;5077008;28;20075;-96
2022/10/21 02:47:53;;;;;;;47.47;22.83;;;11.40;99.90;;;;;;5046802;28;20046;-96
2022/10/21 02:50:19;;;;;;;38.03;22.88;;;11.40;99.90;;;;;;5078273;28;20052;-95
2022/10/21 02:52:45;;;;;;;38.08;24.70;;;11.50;99.90;;;;;;5048964;28;20052;-95
2022/10/21 02:55:11;;;;;;;36.92;23.55;;;11.80;99.90;;;;;;5070157;28;20042;-95
2022/10/21 02:57:37;;;;;;;47.03;24.77;;;12.40;99.90;;;;;;5074850;27;20032;-95
2022/10/21 03:00:05;;;;;;;42.67;24.33;;;11.70;99.90;;;;;;5084008;27;20467;-95
2022/10/21 03:02:31;;;;;;;45.15;24.25;;;11.60;99.90;;;;;;5082659;27;20056;-94
2022/10/21 03:04:56;;;;;;;42.05;22.75;;;11.80;99.90;;;;;;5082852;27;20035;-91
2022/10/21 03:07:22;;;;;;;35.83;23.00;;;11.80;99.90;;;;;;5066396;27;20043;-89
2022/10/21 03:09:48;;;;;;;39.67;23.60;;;11.60;99.90;;;;;;5056863;28;20040;-92
2022/10/21 03:12:13;;;;;;;39.30;23.55;;;12.90;99.90;;;;;;5079019;28;20107;-92
2022/10/21 03:14:39;;;;;;;49.15;26.48;;;11.70;99.90;;;;;;5084623;28;20050;-91
2022/10/21 03:17:05;;;;;;;39.67;23.67;;;12.80;99.90;;;;;;5051331;28;20050;-91
2022/10/21 03:19:30;;;;;;;45.30;22.90;;;12.00;99.90;;;;;;5086712;28;20143;-90
2022/10/21 03:21:56;;;;;;;49.22;25.15;;;12.30;99.90;;;;;;5047917;28;20044;-89
2022/10/21 03:24:22;;;;;;;42.33;23.45;;;12.60;99.90;;;;;;5044580;28;20045;-89
2022/10/21 03:26:47;;;;;;;39.53;22.85;;;11.90;99.90;;;;;;5044128;28;20043;-91
2022/10/21 03:29:13;;;;;;;43.65;23.13;;;12.80;99.90;;;;;;5062433;28;20497;-91
2022/10/21 03:31:39;;;;;;;43.20;24.23;;;11.90;99.90;;;;;;5046254;28;20036;-90
2022/10/21 03:34:04;;;;;;;43.10;22.30;;;12.60;99.90;;;;;;5066624;28;20051;-92
2022/10/21 03:36:30;;;;;;;38.83;22.63;;;12.00;99.90;;;;;;5053813;28;20042;-90
2022/10/21 03:38:56;;;;;;;40.83;21.58;;;12.80;99.90;;;;;;5074236;28;20035;-91
2022/10/21 03:41:21;;;;;;;34.72;21.77;;;12.00;99.90;;;;;;5057551;28;20063;-89
2022/10/21 03:43:47;;;;;;;42.35;24.17;;;12.00;99.90;;;;;;5054478;28;20028;-92
2022/10/21 03:46:13;;;;;;;43.70;22.30;;;12.00;99.90;;;;;;5053206;28;20051;-92
2022/10/21 03:48:38;;;;;;;35.50;21.67;;;12.60;99.90;;;;;;5051101;28;20394;-89
2022/10/21 03:51:04;;;;;;;61.75;23.63;;;12.50;99.90;;;;;;5046677;28;20051;-90
2022/10/21 03:53:30;;;;;;;68.20;25.02;;;11.90;99.90;;;;;;5057173;28;20047;-91
2022/10/21 03:55:56;;;;;;;35.45;21.70;;;11.90;99.90;;;;;;5060772;28;20047;-90
2022/10/21 03:58:21;;;;;;;29.85;20.30;;;11.90;99.90;;;;;;5044102;28;20575;-92
2022/10/21 04:00:52;;;;;;;35.30;20.33;;;12.00;99.90;;;;;;5077713;28;20135;-92
2022/10/21 04:03:17;;;;;;;50.00;22.80;;;11.90;99.90;;;;;;5077023;28;20042;-92
2022/10/21 04:05:43;;;;;;;40.72;22.13;;;11.90;99.90;;;;;;5057861;28;20069;-92
2022/10/21 04:08:09;;;;;;;37.00;19.52;;;11.90;99.90;;;;;;5042682;28;20443;-92
2022/10/21 04:10:34;;;;;;;46.35;22.75;;;12.00;99.90;;;;;;5058041;28;20130;-94
2022/10/21 04:13:00;;;;;;;38.63;21.35;;;11.90;99.90;;;;;;5045928;28;20043;-92
2022/10/21 04:15:26;;;;;;;39.00;21.52;;;12.00;99.90;;;;;;5095560;28;20510;-92
2022/10/21 04:17:58;;;;;;;35.28;20.80;;;11.90;99.90;;;;;;5064036;28;20075;-93
2022/10/21 04:20:23;;;;;;;41.10;20.88;;;12.30;99.90;;;;;;5079077;28;20582;-92
2022/10/21 04:22:57;;;;;;;31.67;20.73;;;11.90;99.90;;;;;;5080655;28;20044;-92
2022/10/21 04:25:23;;;;;;;37.25;22.20;;;12.30;99.90;;;;;;5079592;28;20050;-93
2022/10/21 04:27:48;;;;;;;42.80;22.83;;;11.80;99.90;;;;;;5078699;28;20075;-93
2022/10/21 04:30:14;;;;;;;30.73;19.40;;;12.70;99.90;;;;;;5044102;28;20132;-91
2022/10/21 04:32:41;;;;;;;43.50;21.15;;;11.90;99.90;;;;;;5076822;28;20048;-92
2022/10/21 04:35:08;;;;;;;32.10;20.48;;;11.90;99.90;;;;;;5057822;28;20039;-91
2022/10/21 04:37:34;;;;;;;38.33;21.13;;;11.80;99.90;;;;;;5057209;28;20035;-92
2022/10/21 04:39:59;;;;;;;41.33;20.80;;;12.20;99.90;;;;;;5060266;28;20458;-92
2022/10/21 04:42:25;;;;;;;39.83;21.48;;;12.70;99.90;;;;;;5049203;28;20036;-91
2022/10/21 04:44:51;;;;;;;48.42;22.60;;;12.50;99.90;;;;;;5050802;28;20062;-91
2022/10/21 04:47:17;;;;;;;46.58;22.17;;;12.90;99.90;;;;;;5051860;28;20315;-92
2022/10/21 04:49:43;;;;;;;39.03;20.88;;;12.10;99.90;;;;;;5051457;28;20095;-91
2022/10/21 04:52:08;;;;;;;32.67;21.05;;;12.00;99.90;;;;;;5062666;28;20054;-92
2022/10/21 04:54:34;;;;;;;32.53;19.85;;;11.70;99.90;;;;;;5057348;28;20130;-93
2022/10/21 04:57:00;;;;;;;38.00;21.90;;;11.80;99.90;;;;;;5041392;28;20047;-94
2022/10/21 04:59:25;;;;;;;41.70;22.23;;;11.70;99.90;;;;;;5040531;28;20043;-92
2022/10/21 05:01:51;;;;;;;42.00;22.45;;;12.80;99.90;;;;;;5039468;28;20115;-90
2022/10/21 05:04:17;;;;;;;42.25;22.25;;;11.20;99.90;;;;;;5040415;28;20071;-92
2022/10/21 05:06:43;;;;;;;65.03;23.75;;;13.00;99.90;;;;;;5039640;28;20040;-91
2022/10/21 05:09:09;;;;;;;42.42;22.88;;;11.90;99.90;;;;;;5039462;28;20125;-90
2022/10/21 05:11:34;;;;;;;55.03;24.15;;;11.90;99.90;;;;;;5039461;28;20044;-87
2022/10/21 05:14:00;;;;;;;54.40;23.38;;;13.10;99.90;;;;;;5038781;28;20054;-88
2022/10/21 05:16:26;;;;;;;46.47;24.55;;;13.30;99.90;;;;;;5055517;28;20050;-88
2022/10/21 05:18:52;;;;;;;46.53;24.00;;;12.10;99.90;;;;;;5071587;28;20044;-89
2022/10/21 05:21:17;;;;;;;54.70;24.75;;;12.10;99.90;;;;;;5039059;28;20048;-89
2022/10/21 05:23:43;;;;;;;78.97;29.02;;;12.70;99.90;;;;;;5055524;28;20038;-91
2022/10/21 05:26:09;;;;;;;57.58;26.55;;;12.20;99.90;;;;;;5039963;28;20567;-92
2022/10/21 05:28:35;;;;;;;55.90;26.88;;;12.90;99.90;;;;;;5039241;28;20051;-91
2022/10/21 05:31:01;;;;;;;68.28;27.23;;;11.90;99.90;;;;;;5039890;28;20469;-91
2022/10/21 05:33:27;;;;;;;73.60;27.35;;;11.30;99.90;;;;;;5056116;28;20083;-90
2022/10/21 05:36:00;;;;;;;126.30;31.52;;;12.30;99.90;;;;;;5039313;28;20050;-91
2022/10/21 05:38:27;;;;;;;123.75;28.67;;;12.80;99.90;;;;;;5073082;28;20082;-91
2022/10/21 05:40:53;;;;;;;172.93;34.00;;;12.70;99.90;;;;;;5072435;28;20035;-92
2022/10/21 05:43:19;;;;;;;82.45;27.88;;;12.40;99.90;;;;;;5039535;28;20062;-92
2022/10/21 05:45:44;;;;;;;166.02;34.42;;;12.40;99.90;;;;;;5055936;28;20052;-91
2022/10/21 05:48:10;;;;;;;126.78;28.27;;;12.90;99.90;;;;;;5039739;28;20043;-92
2022/10/21 05:50:36;;;;;;;120.78;26.65;;;12.40;99.90;;;;;;5055721;28;20088;-93
2022/10/21 05:53:01;;;;;;;93.70;26.02;;;12.70;99.90;;;;;;5040960;28;20051;-92
2022/10/21 05:55:27;;;;;;;183.63;34.53;;;12.30;99.90;;;;;;5056488;28;20481;-96
2022/10/21 05:57:53;;;;;;;102.07;27.42;;;12.30;99.90;;;;;;5057098;28;20130;-94
2022/10/21 06:00:19;;;;;;;169.55;31.85;;;12.30;99.90;;;;;;5055836;28;20040;-93
2022/10/21 06:02:44;;;;;;;95.28;26.90;;;12.30;99.90;;;;;;5039454;28;20179;-91
2022/10/21 06:05:10;;;;;;;61.67;24.38;;;12.90;99.90;;;;;;5056027;28;20039;-92
2022/10/21 06:07:36;;;;;;;101.15;28.35;;;12.30;99.90;;;;;;5042112;28;20043;-89
2022/10/21 06:10:03;;;;;;;78.32;26.40;;;12.90;99.90;;;;;;5075105;28;20035;-89
2022/10/21 06:12:28;;;;;;;71.47;26.17;;;12.30;99.90;;;;;;5074878;28;20474;-88
2022/10/21 06:14:54;;;;;;;73.55;26.88;;;12.30;99.90;;;;;;5074793;28;20138;-89
2022/10/21 06:17:20;;;;;;;95.65;31.17;;;12.30;99.90;;;;;;5076267;28;20135;-91
2022/10/21 06:19:47;;;;;;;68.25;27.77;;;12.30;99.90;;;;;;5060330;28;20043;-91
2022/10/21 06:22:13;;;;;;;66.75;29.08;;;13.40;99.90;;;;;;5043171;28;20035;-92
2022/10/21 06:24:39;;;;;;;73.18;29.00;;;12.70;99.90;;;;;;5059504;28;20039;-91
2022/10/21 06:27:07;;;;;;;75.28;28.27;;;12.30;99.90;;;;;;5059567;28;20054;-92
2022/10/21 06:29:33;;;;;;;94.28;31.33;;;11.50;99.90;;;;;;5043614;28;20048;-91
2022/10/21 06:31:58;;;;;;;73.45;29.77;;;12.30;99.90;;;;;;5059906;28;20139;-92
2022/10/21 06:34:30;;;;;;;81.60;30.70;;;12.30;99.90;;;;;;5076817;28;20129;-92
2022/10/21 06:36:55;;;;;;;117.95;33.28;;;12.30;99.90;;;;;;5042173;28;20039;-90
2022/10/21 06:39:21;;;;;;;74.40;29.10;;;12.30;99.90;;;;;;5042217;28;20112;-92
2022/10/21 06:41:47;;;;;;;78.40;30.52;;;12.30;99.90;;;;;;5075968;28;20046;-92
2022/10/21 06:44:12;;;;;;;79.55;30.65;;;12.50;99.90;;;;;;5058763;28;20036;-88
2022/10/21 06:46:44;;;;;;;57.78;28.15;;;12.50;99.90;;;;;;5061047;28;20053;-90
2022/10/21 06:49:10;;;;;;;71.40;29.85;;;12.30;99.90;;;;;;5056267;28;20035;-91
2022/10/21 06:51:35;;;;;;;62.30;30.10;;;12.70;99.90;;;;;;5040036;28;20047;-93
2022/10/21 06:54:01;;;;;;;68.60;30.92;;;12.40;99.90;;;;;;5023117;28;20044;-89
2022/10/21 06:56:27;;;;;;;58.22;29.08;;;12.30;99.90;;;;;;5056114;28;20036;-86
2022/10/21 06:58:56;;;;;;;57.97;27.50;;;12.50;99.90;;;;;;5072407;28;20036;-91
2022/10/21 07:01:25;;;;;;;68.50;30.38;;;12.30;99.90;;;;;;5055004;28;20398;-91
2022/10/21 07:03:51;;;;;;;70.63;30.30;;;12.70;99.90;;;;;;5055857;28;20032;-89
2022/10/21 07:06:17;;;;;;;53.85;26.67;;;12.70;99.90;;;;;;5055289;28;20089;-90
2022/10/21 07:08:43;;;;;;;62.50;28.27;;;12.40;99.90;;;;;;5055154;28;20036;-90
2022/10/21 07:11:11;;;;;;;69.50;31.30;;;12.40;99.90;;;;;;5054948;28;20123;-91
2022/10/21 07:13:37;;;;;;;59.40;30.35;;;13.20;99.90;;;;;;5039491;28;20253;-91
2022/10/21 07:16:13;;;;;;;61.97;31.40;;;12.40;99.90;;;;;;5037979;28;20051;-92
2022/10/21 07:18:39;;;;;;;80.32;34.55;;;12.50;99.90;;;;;;5054854;28;20530;-91
2022/10/21 07:21:07;;;;;;;63.35;32.58;;;13.00;99.90;;;;;;5039689;28;20044;-90
2022/10/21 07:23:33;;;;;;;60.35;30.77;;;12.60;99.90;;;;;;5056456;28;20105;-89
2022/10/21 07:26:03;;;;;;;54.00;26.83;;;12.60;99.90;;;;;;5054618;28;20036;-90
2022/10/21 07:28:29;;;;;;;53.17;28.95;;;12.60;99.90;;;;;;5053443;28;20039;-90
2022/10/21 07:30:54;;;;;;;52.65;26.70;;;12.60;99.90;;;;;;5020229;28;20051;-89
2022/10/21 07:33:20;;;;;;;47.28;26.02;;;12.70;99.90;;;;;;5020411;28;20086;-88
2022/10/21 07:35:46;;;;;;;53.40;25.92;;;12.70;99.90;;;;;;5053160;28;20479;-88
2022/10/21 07:38:11;;;;;;;45.25;25.25;;;12.70;99.90;;;;;;5036955;28;20048;-89
2022/10/21 07:40:41;;;;;;;43.10;25.10;;;12.70;99.90;;;;;;5037391;28;20044;-89
2022/10/21 07:43:08;;;;;;;42.13;23.13;;;12.70;99.90;;;;;;5053384;28;20050;-90
2022/10/21 07:45:37;;;;;;;40.72;22.40;;;12.70;99.90;;;;;;5035932;28;20086;-89
2022/10/21 07:48:03;;;;;;;38.60;22.35;;;12.60;99.90;;;;;;5053525;28;20376;-89
2022/10/21 07:50:28;;;;;;;42.17;22.33;;;12.60;99.90;;;;;;5049819;28;20096;-89
2022/10/21 07:52:54;;;;;;;39.92;21.65;;;12.80;99.90;;;;;;5057239;28;20108;-89
2022/10/21 07:55:20;;;;;;;36.83;21.98;;;13.00;99.90;;;;;;5041041;28;20479;-91
2022/10/21 07:57:45;;;;;;;36.78;21.67;;;12.50;99.90;;;;;;5058740;28;20360;-93
2022/10/21 08:00:11;;;;;;;38.22;21.77;;;12.50;99.90;;;;;;5044827;28;20044;-90
2022/10/21 08:02:37;;;;;;;33.35;19.45;;;12.50;99.90;;;;;;5046675;28;20047;-89
2022/10/21 08:05:04;;;;;;;35.25;20.15;;;12.50;99.90;;;;;;5079354;28;20352;-90
2022/10/21 08:07:31;;;;;;;38.20;20.50;;;12.50;99.90;;;;;;5045700;28;20047;-88
2022/10/21 08:09:57;;;;;;;29.30;20.60;;;12.50;99.90;;;;;;5075020;28;20567;-87
2022/10/21 08:12:23;;;;;;;31.90;20.23;;;12.60;99.90;;;;;;5107727;28;20112;-88
2022/10/21 08:14:50;;;;;;;32.42;19.73;;;11.70;99.90;;;;;;5090358;28;20044;-87
2022/10/21 08:17:16;;;;;;;35.28;22.52;;;13.20;99.90;;;;;;5071963;28;20534;-83
2022/10/21 08:19:41;;;;;;;35.47;22.00;;;12.50;99.90;;;;;;5088785;28;20040;-86
2022/10/21 08:22:07;;;;;;;38.88;21.10;;;12.50;99.90;;;;;;5072088;28;20039;-87
2022/10/21 08:24:33;;;;;;;36.13;21.75;;;12.80;99.90;;;;;;5071846;28;20518;-86
2022/10/21 08:26:59;;;;;;;39.13;20.55;;;12.60;99.90;;;;;;5107256;28;20641;-84
2022/10/21 08:29:25;;;;;;;33.47;21.30;;;12.60;99.90;;;;;;5071421;28;20047;-86
2022/10/21 08:31:50;;;;;;;38.60;21.85;;;13.20;99.90;;;;;;5038540;28;20047;-87
2022/10/21 08:34:16;;;;;;;40.83;21.40;;;12.80;99.90;;;;;;5054834;28;20043;-84
2022/10/21 08:36:42;;;;;;;42.97;21.83;;;12.80;99.90;;;;;;5070273;28;20051;-85
2022/10/21 08:39:08;;;;;;;42.30;21.92;;;12.90;99.90;;;;;;5088949;28;20048;-86
2022/10/21 08:42:18;;;;;;;36.63;21.80;;;13.00;99.90;;;;;;5070973;28;20081;-86
2022/10/21 08:44:52;;;;;;;35.97;21.40;;;13.10;99.90;;;;;;5088174;28;20070;-83
2022/10/21 08:47:24;;;;;;;34.03;20.23;;;13.70;99.90;;;;;;5088704;28;20406;-84
2022/10/21 08:49:56;;;;;;;36.13;22.33;;;13.20;99.90;;;;;;5088081;28;20176;-84
2022/10/21 08:52:49;;;;;;;35.10;22.50;;;13.30;99.90;;;;;;5088318;28;20052;-84
2022/10/21 08:55:29;;;;;;;32.55;21.30;;;13.40;99.90;;;;;;5070659;28;20537;-84
2022/10/21 08:57:55;;;;;;;30.90;21.35;;;13.50;99.90;;;;;;5106557;28;20414;-84
2022/10/21 09:00:35;;;;;;;30.20;20.90;;;13.60;99.90;;;;;;5088698;28;20035;-85
2022/10/21 09:03:16;;;;;;;32.67;19.88;;;13.60;99.90;;;;;;5087873;28;20114;-84
2022/10/21 09:06:11;;;;;;;32.30;20.33;;;13.70;99.90;;;;;;5071238;28;20570;-84
2022/10/21 09:09:04;;;;;;;33.05;21.48;;;13.80;99.90;;;;;;5087995;28;20499;-87
2022/10/21 09:11:42;;;;;;;29.42;19.50;;;13.90;99.90;;;;;;5087979;28;20130;-87
2022/10/21 09:14:36;;;;;;;32.65;20.30;;;13.90;99.90;;;;;;5087962;28;20048;-87
2022/10/21 09:17:34;;;;;;;27.73;18.48;;;14.00;99.90;;;;;;5071196;28;20039;-87
2022/10/21 09:20:35;;;;;;;28.38;19.52;;;14.10;99.90;;;;;;5048843;28;20090;-85
2022/10/21 09:23:14;;;;;;;28.65;17.80;;;14.20;99.90;;;;;;5056152;28;20055;-87
2022/10/21 09:26:20;;;;;;;41.10;19.90;;;14.30;99.90;;;;;;5071149;28;20110;-86
2022/10/21 09:28:47;;;;;;;30.73;19.38;;;14.40;99.90;;;;;;5082507;28;20063;-86
2022/10/21 09:31:16;;;;;;;29.35;18.95;;;14.50;99.90;;;;;;5070879;28;20572;-88
2022/10/21 09:33:46;;;;;;;28.02;19.73;;;14.60;99.90;;;;;;5088473;28;20047;-86
2022/10/21 09:36:23;;;;;;;29.67;18.20;;;14.70;99.90;;;;;;5087719;28;20040;-86
2022/10/21 09:39:01;;;;;;;29.52;16.65;;;14.80;99.90;;;;;;5071097;28;20042;-88
2022/10/21 09:41:36;;;;;;;27.20;17.60;;;15.90;99.90;;;;;;5072662;28;20048;-87
2022/10/21 09:44:01;;;;;;;25.52;16.65;;;15.00;99.90;;;;;;5074963;28;20081;-86
2022/10/21 09:46:27;;;;;;;26.17;16.25;;;15.10;99.90;;;;;;5074666;28;20120;-85
2022/10/21 09:48:55;;;;;;;24.83;16.92;;;15.20;99.90;;;;;;5091563;28;20047;-85
2022/10/21 09:51:32;;;;;;;29.88;16.23;;;15.30;99.90;;;;;;5054784;28;20085;-85
2022/10/21 09:54:08;;;;;;;26.40;15.45;;;15.30;99.90;;;;;;5054401;28;20048;-86
2022/10/21 09:56:41;;;;;;;24.48;14.82;;;15.40;99.90;;;;;;5054933;28;20067;-86
2022/10/21 09:59:17;;;;;;;23.80;14.95;;;15.50;99.90;;;;;;5071309;28;20048;-86
2022/10/21 10:01:45;;;;;;;24.35;12.75;;;15.60;99.90;;;;;;5037686;28;20044;-86
2022/10/21 10:04:19;;;;;;;17.67;12.10;;;15.60;99.90;;;;;;5054126;28;20043;-86
2022/10/21 10:06:45;;;;;;;22.27;13.75;;;15.70;99.90;;;;;;5054513;28;20440;-86
2022/10/21 10:09:23;;;;;;;23.67;13.35;;;15.90;99.90;;;;;;5071578;28;20134;-86
2022/10/21 10:11:59;;;;;;;22.20;12.95;;;15.90;99.90;;;;;;5071227;28;20063;-86
2022/10/21 10:14:29;;;;;;;19.23;12.10;;;16.00;99.90;;;;;;5071058;28;20079;-85
2022/10/21 10:16:56;;;;;;;18.40;12.75;;;16.20;99.90;;;;;;5054481;28;20447;-86
2022/10/21 10:19:26;;;;;;;16.52;12.32;;;16.20;99.90;;;;;;5054029;28;20491;-85
2022/10/21 10:22:11;;;;;;;19.42;11.52;;;16.30;99.90;;;;;;5054585;28;20044;-85
2022/10/21 10:24:39;;;;;;;20.95;11.05;;;16.50;99.90;;;;;;5054129;28;20113;-85
2022/10/21 10:27:26;;;;;;;16.73;10.60;;;16.50;99.90;;;;;;5021824;28;20051;-85
2022/10/21 10:29:55;;;;;;;17.40;11.57;;;16.60;99.90;;;;;;5053618;28;20127;-85
2022/10/21 10:32:24;;;;;;;14.38;10.75;;;16.60;99.90;;;;;;5053462;28;20112;-86
2022/10/21 10:34:51;;;;;;;23.63;11.40;;;16.70;99.90;;;;;;5070771;28;20131;-85
2022/10/21 10:37:21;;;;;;;16.23;10.60;;;16.70;99.90;;;;;;5070286;28;20082;-86
2022/10/21 10:39:51;;;;;;;18.98;11.23;;;16.80;99.90;;;;;;5070215;28;20048;-87
2022/10/21 10:42:32;;;;;;;14.68;10.73;;;16.80;99.90;;;;;;5054230;28;20048;-86
2022/10/21 10:45:02;;;;;;;17.02;10.90;;;16.70;99.90;;;;;;5054473;28;20051;-88
2022/10/21 10:47:31;;;;;;;18.92;11.02;;;16.80;99.90;;;;;;5071238;28;20040;-84
2022/10/21 10:49:57;;;;;;;16.88;10.02;;;16.80;99.90;;;;;;5062370;28;20495;-83
2022/10/21 10:52:24;;;;;;;15.65;10.40;;;16.80;99.90;;;;;;5089737;28;20054;-84
2022/10/21 10:55:13;;;;;;;13.27;10.25;;;16.80;99.90;;;;;;5090612;28;20035;-83
2022/10/21 10:57:42;;;;;;;22.77;10.68;;;16.80;99.90;;;;;;5090907;28;20459;-86
2022/10/21 11:00:20;;;;;;;11.95;9.70;;;16.80;99.90;;;;;;5090051;28;20047;-84
2022/10/21 11:03:06;;;;;;;13.02;9.70;;;16.70;99.90;;;;;;5090558;28;20043;-87
2022/10/21 11:05:47;;;;;;;13.48;10.90;;;16.70;99.90;;;;;;5075274;28;20051;-88
2022/10/21 11:08:35;;;;;;;14.60;10.32;;;16.70;99.90;;;;;;5078341;28;20078;-85
2022/10/21 11:11:24;;;;;;;16.65;9.45;;;16.70;99.90;;;;;;5092949;28;20093;-84
2022/10/21 11:13:51;;;;;;;15.75;8.80;;;16.80;99.90;;;;;;5080329;28;20039;-88
2022/10/21 11:16:38;;;;;;;14.93;9.57;;;16.80;99.90;;;;;;5062004;28;20082;-85
2022/10/21 11:19:41;;;;;;;11.05;8.15;;;16.80;99.90;;;;;;5079223;28;20043;-86
2022/10/21 11:22:27;;;;;;;12.30;8.35;;;16.90;99.90;;;;;;5081037;28;20051;-87
2022/10/21 11:25:03;;;;;;;17.83;9.07;;;16.90;99.90;;;;;;5100516;28;20043;-87
2022/10/21 11:27:51;;;;;;;12.52;9.15;;;16.90;99.90;;;;;;5083591;28;20126;-88
2022/10/21 11:30:20;;;;;;;12.43;8.52;;;16.90;99.90;;;;;;5086191;28;20048;-86
2022/10/21 11:33:08;;;;;;;13.15;9.32;;;17.00;99.90;;;;;;5099484;28;20486;-92
2022/10/21 11:36:04;;;;;;;10.07;8.32;;;17.00;99.90;;;;;;5092820;28;20051;-93
2022/10/21 11:38:45;;;;;;;15.63;8.43;;;17.10;99.90;;;;;;5088586;28;20047;-88
2022/10/21 11:41:30;;;;;;;16.50;7.65;;;17.20;99.90;;;;;;5102553;28;20071;-87
2022/10/21 11:44:24;;;;;;;13.25;7.80;;;17.30;99.90;;;;;;5091660;28;20096;-87
2022/10/21 11:47:34;;;;;;;16.63;7.07;;;17.30;99.90;;;;;;5098700;27;20027;-87
2022/10/21 11:50:22;;;;;;;9.65;6.13;;;17.40;99.90;;;;;;5097223;28;20039;-87
2022/10/21 11:53:26;;;;;;;13.18;6.75;;;17.40;99.90;;;;;;5114200;28;20024;-88
2022/10/21 11:56:05;;;;;;;14.07;7.13;;;17.40;99.90;;;;;;5113928;28;20068;-86
2022/10/21 11:58:46;;;;;;;15.68;7.20;;;17.40;99.90;;;;;;5112877;28;20036;-90
2022/10/21 12:01:13;;;;;;;11.32;7.07;;;17.40;99.90;;;;;;5112342;28;20122;-87
2022/10/21 12:03:48;;;;;;;15.30;7.25;;;17.30;99.90;;;;;;5094233;28;20047;-87
2022/10/21 12:06:31;;;;;;;12.23;6.35;;;17.30;99.90;;;;;;5110218;28;20053;-86
2022/10/21 12:09:01;;;;;;;14.93;6.50;;;17.30;99.90;;;;;;5095919;28;20058;-87
2022/10/21 12:11:57;;;;;;;12.85;6.90;;;17.20;99.90;;;;;;5075597;28;20082;-88
2022/10/21 12:14:48;;;;;;;18.15;6.60;;;17.20;99.90;;;;;;5075049;28;20502;-84
2022/10/21 12:17:20;;;;;;;13.15;7.28;;;17.10;99.90;;;;;;5075687;28;20050;-85
2022/10/21 12:19:56;;;;;;;12.18;7.05;;;17.10;99.90;;;;;;5057314;28;20108;-85
2022/10/21 12:22:25;;;;;;;11.52;7.28;;;17.10;99.90;;;;;;5073233;28;20044;-84
2022/10/21 12:25:15;;;;;;;12.32;7.13;;;17.10;99.90;;;;;;5088981;28;20036;-85
2022/10/21 12:27:52;;;;;;;10.95;6.80;;;17.10;99.90;;;;;;5072430;28;20130;-88
2022/10/21 12:30:56;;;;;;;11.13;5.65;;;17.10;99.90;;;;;;5073494;28;20054;-88
2022/10/21 12:33:43;;;;;;;11.32;5.93;;;17.20;99.90;;;;;;5091629;28;20062;-89
2022/10/21 12:36:40;;;;;;;15.27;6.85;;;17.20;99.90;;;;;;5057751;28;20039;-88
2022/10/21 12:39:32;;;;;;;12.40;6.88;;;17.20;99.90;;;;;;5074971;28;20040;-88
2022/10/21 12:42:15;;;;;;;9.38;6.05;;;17.20;99.90;;;;;;5074999;28;20089;-91
2022/10/21 12:44:45;;;;;;;10.48;7.22;;;17.20;99.90;;;;;;5075292;28;20090;-90
2022/10/21 12:47:34;;;;;;;12.23;6.18;;;17.20;99.90;;;;;;5074150;28;20486;-90
2022/10/21 12:50:28;;;;;;;14.63;6.95;;;17.20;99.90;;;;;;5091059;28;20051;-90
2022/10/21 12:53:41;;;;;;;9.13;6.15;;;17.20;99.90;;;;;;5090042;28;20054;-88